Time;durP1;ratioP1;P1;durP2;ratioP2;P2;SDS_P1;SDS_P2;PMS_P1;PMS_P2;Temp;Humidity;BMP_temperature;BMP_pressure;BME280_temperature;BME280_humidity;BME280_pressure;Samples;Min_cycle;Max_cycle;Signal;HPM_P1;HPM_P2
2023/05/09 00:00:05;;;;;;;83.13;41.63;;;14.60;99.90;;;;;;6184873;23;20449;-86
2023/05/09 00:02:33;;;;;;;80.40;39.75;;;14.60;99.90;;;;;;6157893;23;20345;-86
2023/05/09 00:05:02;;;;;;;88.10;42.35;;;14.60;99.90;;;;;;6185025;23;20052;-86
2023/05/09 00:07:28;;;;;;;85.88;40.15;;;14.60;99.90;;;;;;6158719;23;20456;-86
2023/05/09 00:09:54;;;;;;;77.95;39.83;;;14.60;99.90;;;;;;6184294;23;20020;-86
2023/05/09 00:12:20;;;;;;;68.90;36.53;;;14.60;99.90;;;;;;6158925;23;20094;-87
2023/05/09 00:14:50;;;;;;;70.15;36.75;;;14.60;99.90;;;;;;6159780;23;20349;-86
2023/05/09 00:17:17;;;;;;;67.15;35.58;;;14.50;99.90;;;;;;6182275;23;20020;-86
2023/05/09 00:19:44;;;;;;;66.72;34.35;;;14.50;99.90;;;;;;6158830;23;20012;-86
2023/05/09 00:22:11;;;;;;;65.45;34.60;;;14.50;99.90;;;;;;6182523;23;20477;-85
2023/05/09 00:24:37;;;;;;;68.90;35.25;;;14.60;99.90;;;;;;6159001;23;20012;-86
2023/05/09 00:27:03;;;;;;;61.63;33.63;;;14.60;99.90;;;;;;6184645;23;20025;-85
2023/05/09 00:29:29;;;;;;;75.95;36.28;;;14.60;99.90;;;;;;6182516;23;20163;-87
2023/05/09 00:31:55;;;;;;;73.03;36.28;;;14.60;99.90;;;;;;6158898;23;20028;-86
2023/05/09 00:34:21;;;;;;;68.70;34.40;;;14.60;99.90;;;;;;6183306;23;20020;-86
2023/05/09 00:36:46;;;;;;;68.05;35.28;;;14.60;99.90;;;;;;6158255;23;20009;-87
2023/05/09 00:39:12;;;;;;;69.43;36.63;;;14.60;99.90;;;;;;6183438;23;20078;-86
2023/05/09 00:41:38;;;;;;;69.93;35.38;;;14.60;99.90;;;;;;6158495;23;20095;-86
2023/05/09 00:44:04;;;;;;;72.00;36.97;;;14.60;99.90;;;;;;6183346;23;20344;-86
2023/05/09 00:46:30;;;;;;;68.47;36.15;;;14.60;99.90;;;;;;6157641;23;20062;-86
2023/05/09 00:48:56;;;;;;;75.53;36.08;;;14.70;99.90;;;;;;6158326;23;20496;-87
2023/05/09 00:51:22;;;;;;;80.75;37.25;;;14.60;99.90;;;;;;6156999;23;20531;-87
2023/05/09 00:53:48;;;;;;;89.68;39.78;;;14.60;99.90;;;;;;6183564;23;20017;-86
2023/05/09 00:56:14;;;;;;;81.55;38.28;;;14.50;99.90;;;;;;6183638;23;20395;-86
2023/05/09 00:58:40;;;;;;;90.97;41.25;;;14.50;99.90;;;;;;6158286;23;20060;-86
2023/05/09 01:01:07;;;;;;;73.88;37.55;;;14.50;99.90;;;;;;6183333;23;20027;-87
2023/05/09 01:03:34;;;;;;;69.35;35.30;;;14.50;99.90;;;;;;6159083;23;20032;-87
2023/05/09 01:06:07;;;;;;;70.10;37.03;;;14.50;99.90;;;;;;6157654;23;20021;-87
2023/05/09 01:08:45;;;;;;;84.45;38.67;;;14.50;99.90;;;;;;6158807;23;20016;-86
2023/05/09 01:11:17;;;;;;;78.25;38.42;;;14.50;99.90;;;;;;6158515;23;20020;-87
2023/05/09 01:14:07;;;;;;;74.68;37.35;;;14.50;99.90;;;;;;6158521;23;20346;-87
2023/05/09 01:16:39;;;;;;;84.65;41.05;;;14.50;99.90;;;;;;6157684;23;20021;-87
2023/05/09 01:19:18;;;;;;;87.68;41.80;;;14.60;99.90;;;;;;6158347;23;20021;-86
2023/05/09 01:21:47;;;;;;;92.70;40.83;;;14.50;99.90;;;;;;6182745;23;20039;-87
2023/05/09 01:24:43;;;;;;;84.95;40.13;;;14.50;99.90;;;;;;6183930;23;20016;-87
2023/05/09 01:27:24;;;;;;;92.18;41.10;;;14.50;99.90;;;;;;6157619;23;20344;-87
2023/05/09 01:29:58;;;;;;;82.75;39.17;;;14.40;99.90;;;;;;6159014;23;20020;-86
2023/05/09 01:32:27;;;;;;;90.97;41.22;;;14.40;99.90;;;;;;6181268;23;20012;-87
2023/05/09 01:34:58;;;;;;;88.50;40.67;;;14.50;99.90;;;;;;6184325;23;20051;-87
2023/05/09 01:37:30;;;;;;;88.95;41.55;;;14.50;99.90;;;;;;6157838;23;20019;-88
2023/05/09 01:40:00;;;;;;;97.45;41.97;;;14.50;99.90;;;;;;6158589;23;20465;-87
2023/05/09 01:42:32;;;;;;;75.45;36.72;;;14.50;99.90;;;;;;6157594;23;20068;-87
2023/05/09 01:44:59;;;;;;;78.63;38.95;;;14.50;99.90;;;;;;6159918;23;20496;-87
2023/05/09 01:47:26;;;;;;;70.43;36.65;;;14.50;99.90;;;;;;6155997;23;20016;-86
2023/05/09 01:49:54;;;;;;;78.32;37.17;;;14.50;99.90;;;;;;6158371;23;20047;-86
2023/05/09 01:52:21;;;;;;;79.65;36.67;;;14.50;99.90;;;;;;6156987;23;20037;-86
2023/05/09 01:54:49;;;;;;;71.70;36.55;;;14.50;99.90;;;;;;6158294;23;20016;-87
2023/05/09 01:57:17;;;;;;;85.22;38.38;;;14.40;99.90;;;;;;6157572;23;20028;-86
2023/05/09 01:59:44;;;;;;;78.45;37.88;;;14.40;99.90;;;;;;6158729;23;20016;-86
2023/05/09 02:02:11;;;;;;;87.57;40.20;;;14.40;99.90;;;;;;6181164;23;20103;-86
2023/05/09 02:04:39;;;;;;;86.55;37.95;;;14.50;99.90;;;;;;6158514;23;20070;-86
2023/05/09 02:07:06;;;;;;;81.53;40.10;;;14.40;99.90;;;;;;6157864;23;20039;-86
2023/05/09 02:09:32;;;;;;;83.72;39.58;;;14.50;99.90;;;;;;6156872;23;20099;-87
2023/05/09 02:11:57;;;;;;;93.03;40.40;;;14.40;99.90;;;;;;6158097;23;20052;-86
2023/05/09 02:14:23;;;;;;;98.05;42.60;;;14.50;99.90;;;;;;6157873;23;20024;-87
2023/05/09 02:16:49;;;;;;;97.90;41.90;;;14.50;99.90;;;;;;6157676;23;20457;-87
2023/05/09 02:19:16;;;;;;;93.97;39.63;;;14.50;99.90;;;;;;6157649;23;20044;-86
2023/05/09 02:21:42;;;;;;;89.90;39.35;;;14.50;99.90;;;;;;6156346;23;20048;-86
2023/05/09 02:24:08;;;;;;;104.57;41.55;;;14.50;99.90;;;;;;6158581;23;20017;-86
2023/05/09 02:26:34;;;;;;;79.68;39.22;;;14.40;99.90;;;;;;6156981;23;20063;-87
2023/05/09 02:29:02;;;;;;;94.95;43.20;;;14.40;99.90;;;;;;6182786;23;20024;-87
2023/05/09 02:31:29;;;;;;;78.30;37.83;;;14.50;99.90;;;;;;6156968;23;20054;-88
2023/05/09 02:33:56;;;;;;;101.43;43.13;;;14.40;99.90;;;;;;6183939;23;20028;-87
2023/05/09 02:36:22;;;;;;;98.57;42.58;;;14.40;99.90;;;;;;6156841;23;20040;-87
2023/05/09 02:38:48;;;;;;;87.60;41.78;;;14.50;99.90;;;;;;6158641;23;20021;-87
2023/05/09 02:41:15;;;;;;;91.57;41.67;;;14.50;99.90;;;;;;6158512;23;20031;-87
2023/05/09 02:43:41;;;;;;;117.75;45.30;;;14.50;99.90;;;;;;6182198;23;20337;-86
2023/05/09 02:46:07;;;;;;;91.75;40.83;;;14.50;99.90;;;;;;6157903;23;20017;-86
2023/05/09 02:48:33;;;;;;;94.55;42.75;;;14.50;99.90;;;;;;6157383;23;20095;-87
2023/05/09 02:50:59;;;;;;;86.68;40.28;;;14.50;99.90;;;;;;6180669;23;20021;-86
2023/05/09 02:53:25;;;;;;;114.60;45.63;;;14.50;99.90;;;;;;6157749;23;20067;-86
2023/05/09 02:55:52;;;;;;;81.22;39.97;;;14.50;99.90;;;;;;6182216;23;20017;-86
2023/05/09 02:58:19;;;;;;;84.40;39.17;;;14.50;99.90;;;;;;6157437;23;20287;-87
2023/05/09 03:00:45;;;;;;;120.05;47.55;;;14.50;99.90;;;;;;6157186;23;20099;-87
2023/05/09 03:03:11;;;;;;;76.20;38.40;;;14.50;99.90;;;;;;6183684;23;20059;-87
2023/05/09 03:05:36;;;;;;;88.38;40.47;;;14.50;99.90;;;;;;6157004;23;20035;-87
2023/05/09 03:08:02;;;;;;;95.63;42.10;;;14.50;99.90;;;;;;6158360;23;20021;-86
2023/05/09 03:10:28;;;;;;;88.97;43.17;;;14.50;99.90;;;;;;6157857;23;20094;-87
2023/05/09 03:12:54;;;;;;;103.07;46.03;;;14.50;99.90;;;;;;6181810;23;20025;-86
2023/05/09 03:15:20;;;;;;;99.97;45.22;;;14.50;99.90;;;;;;6182668;23;20400;-87
2023/05/09 03:17:46;;;;;;;97.50;44.63;;;14.50;99.90;;;;;;6157912;23;20079;-87
2023/05/09 03:20:29;;;;;;;99.70;45.10;;;14.60;99.90;;;;;;6156426;23;20027;-88
2023/05/09 03:22:57;;;;;;;93.57;44.40;;;14.50;99.90;;;;;;6158108;23;20016;-87
2023/05/09 03:25:25;;;;;;;96.82;44.83;;;14.50;99.90;;;;;;6156790;23;20052;-88
2023/05/09 03:27:50;;;;;;;119.30;47.60;;;14.60;99.90;;;;;;6157613;23;20454;-87
2023/05/09 03:30:16;;;;;;;99.57;45.20;;;14.50;99.90;;;;;;6182979;23;20039;-86
2023/05/09 03:32:42;;;;;;;100.25;47.20;;;14.60;99.90;;;;;;6182745;23;20099;-88
2023/05/09 03:35:07;;;;;;;96.88;46.50;;;14.50;99.90;;;;;;6159523;23;20175;-86
2023/05/09 03:37:33;;;;;;;120.03;50.03;;;14.50;99.90;;;;;;6160013;23;20505;-86
2023/05/09 03:39:59;;;;;;;93.57;44.83;;;14.50;99.90;;;;;;6182974;23;20429;-87
2023/05/09 03:42:24;;;;;;;83.05;41.53;;;14.50;99.90;;;;;;6183809;23;20353;-87
2023/05/09 03:44:51;;;;;;;102.40;47.90;;;14.50;99.90;;;;;;6184408;23;20067;-87
2023/05/09 03:47:17;;;;;;;98.47;47.28;;;14.60;99.90;;;;;;6158083;23;20097;-86
2023/05/09 03:49:42;;;;;;;93.95;44.15;;;14.60;99.90;;;;;;6160093;23;20029;-86
2023/05/09 03:52:08;;;;;;;89.93;45.17;;;14.60;99.90;;;;;;6158840;23;20425;-87
2023/05/09 03:54:34;;;;;;;103.75;45.95;;;14.60;99.90;;;;;;6158941;23;20512;-87
2023/05/09 03:57:00;;;;;;;98.88;46.22;;;14.60;99.90;;;;;;6184051;23;20084;-87
2023/05/09 03:59:37;;;;;;;92.90;45.65;;;14.50;99.90;;;;;;6184368;23;20013;-87
2023/05/09 04:02:06;;;;;;;97.43;44.15;;;14.60;99.90;;;;;;6158351;23;20031;-87
2023/05/09 04:04:34;;;;;;;105.07;45.65;;;14.60;99.90;;;;;;6159917;23;20012;-87
2023/05/09 04:07:00;;;;;;;109.07;46.55;;;14.50;99.90;;;;;;6158730;23;20012;-87
2023/05/09 04:09:26;;;;;;;91.75;44.65;;;14.50;99.90;;;;;;6159442;23;20092;-87
2023/05/09 04:11:52;;;;;;;88.70;43.28;;;14.50;99.90;;;;;;6159343;23;20028;-86
2023/05/09 04:14:24;;;;;;;89.72;42.70;;;14.50;99.90;;;;;;6159382;23;20020;-87
2023/05/09 04:16:50;;;;;;;84.33;42.27;;;14.50;99.90;;;;;;6182520;23;20372;-86
2023/05/09 04:19:16;;;;;;;102.35;44.83;;;14.50;99.90;;;;;;6158769;23;20092;-85
2023/05/09 04:21:41;;;;;;;116.72;48.15;;;14.50;99.90;;;;;;6158710;23;20032;-86
2023/05/09 04:24:07;;;;;;;88.32;43.45;;;14.50;99.90;;;;;;6159853;23;20048;-87
2023/05/09 04:26:37;;;;;;;107.82;47.78;;;14.50;99.90;;;;;;6159214;23;20051;-87
2023/05/09 04:29:15;;;;;;;111.60;46.88;;;14.50;99.90;;;;;;6159048;23;20020;-86
2023/05/09 04:31:40;;;;;;;121.63;50.45;;;14.60;99.90;;;;;;6182953;23;20013;-86
2023/05/09 04:34:06;;;;;;;113.20;49.08;;;14.50;99.90;;;;;;6184841;23;20047;-88
2023/05/09 04:36:32;;;;;;;98.88;47.45;;;14.60;99.90;;;;;;6158269;23;20060;-87
2023/05/09 04:38:58;;;;;;;102.75;45.70;;;14.60;99.90;;;;;;6159299;23;20024;-86
2023/05/09 04:41:27;;;;;;;94.90;46.35;;;14.60;99.90;;;;;;6158995;23;20975;-87
2023/05/09 04:43:53;;;;;;;109.10;49.53;;;14.60;99.90;;;;;;6182388;23;20024;-88
2023/05/09 04:46:18;;;;;;;93.50;47.72;;;14.70;99.90;;;;;;6158506;23;20013;-87
2023/05/09 04:48:44;;;;;;;101.70;47.83;;;14.70;99.90;;;;;;6158913;23;20476;-87
2023/05/09 04:51:10;;;;;;;81.72;45.03;;;14.70;99.90;;;;;;6182242;23;20074;-86
2023/05/09 04:53:36;;;;;;;103.32;47.88;;;14.80;99.90;;;;;;6159525;23;20036;-87
2023/05/09 04:56:01;;;;;;;83.97;42.28;;;14.80;99.90;;;;;;6183861;23;20070;-87
2023/05/09 04:58:27;;;;;;;75.95;41.58;;;14.80;99.90;;;;;;6182636;23;20012;-87
2023/05/09 05:00:53;;;;;;;68.30;40.55;;;14.90;99.90;;;;;;6158559;23;20025;-88
2023/05/09 05:03:19;;;;;;;73.93;42.22;;;14.90;99.90;;;;;;6158204;23;20009;-86
2023/05/09 05:05:45;;;;;;;67.00;39.67;;;14.90;99.90;;;;;;6158737;23;20352;-87
2023/05/09 05:08:11;;;;;;;69.78;39.85;;;15.00;99.90;;;;;;6183211;23;20035;-88
2023/05/09 05:10:36;;;;;;;65.93;38.40;;;15.00;99.90;;;;;;6182888;23;20063;-86
2023/05/09 05:13:02;;;;;;;55.35;35.15;;;15.10;99.90;;;;;;6158922;23;20024;-87
2023/05/09 05:15:28;;;;;;;56.58;34.20;;;15.10;99.90;;;;;;6158299;23;20021;-89
2023/05/09 05:17:54;;;;;;;47.65;33.03;;;15.10;99.90;;;;;;6158173;23;20020;-87
2023/05/09 05:20:20;;;;;;;43.10;30.10;;;15.20;99.90;;;;;;6182365;23;20349;-87
2023/05/09 05:22:46;;;;;;;41.63;29.17;;;15.20;99.90;;;;;;6184495;23;20449;-87
2023/05/09 05:25:12;;;;;;;44.45;29.88;;;15.20;99.90;;;;;;6182557;23;20032;-87
2023/05/09 05:27:37;;;;;;;40.47;27.13;;;15.20;99.90;;;;;;6158433;23;20080;-87
2023/05/09 05:30:04;;;;;;;42.08;28.73;;;15.20;99.90;;;;;;6159397;23;20066;-88
2023/05/09 05:32:38;;;;;;;37.80;27.10;;;15.20;99.90;;;;;;6181658;23;20456;-87
2023/05/09 05:35:04;;;;;;;36.30;25.50;;;15.20;99.90;;;;;;6158028;23;20024;-86
2023/05/09 05:37:35;;;;;;;34.28;24.88;;;15.20;99.90;;;;;;6157140;23;20086;-87
2023/05/09 05:40:13;;;;;;;34.28;25.65;;;15.20;99.90;;;;;;6158248;23;20079;-86
2023/05/09 05:42:43;;;;;;;31.20;24.25;;;15.20;99.90;;;;;;6159160;23;20017;-87
2023/05/09 05:45:19;;;;;;;37.78;26.67;;;15.20;99.90;;;;;;6158505;23;20381;-87
2023/05/09 05:47:45;;;;;;;35.72;25.23;;;15.30;99.90;;;;;;6182137;23;20020;-87
2023/05/09 05:50:11;;;;;;;33.85;24.60;;;15.20;99.90;;;;;;6158542;23;20024;-86
2023/05/09 05:52:52;;;;;;;35.50;25.35;;;15.20;99.90;;;;;;6182723;23;20051;-87
2023/05/09 05:55:18;;;;;;;35.00;25.33;;;15.20;99.90;;;;;;6158635;23;20046;-87
2023/05/09 05:57:44;;;;;;;36.78;26.50;;;15.20;99.90;;;;;;6158140;23;20456;-87
2023/05/09 06:00:13;;;;;;;30.65;24.20;;;15.20;99.90;;;;;;6158132;23;20017;-88
2023/05/09 06:02:43;;;;;;;32.45;23.95;;;14.90;99.90;;;;;;6207529;23;20017;-87
2023/05/09 06:05:11;;;;;;;31.27;23.95;;;15.20;99.90;;;;;;6158481;23;20339;-88
2023/05/09 06:07:39;;;;;;;32.03;23.58;;;15.20;99.90;;;;;;6181913;23;20052;-87
2023/05/09 06:10:06;;;;;;;37.53;24.42;;;15.30;99.90;;;;;;6158335;23;20024;-88
2023/05/09 06:12:38;;;;;;;37.90;24.17;;;15.30;99.90;;;;;;6153538;23;20060;-87
2023/05/09 06:15:05;;;;;;;34.73;25.60;;;15.30;99.90;;;;;;6158095;23;20020;-87
2023/05/09 06:17:37;;;;;;;37.03;26.63;;;15.30;99.90;;;;;;6157481;23;20259;-88
2023/05/09 06:20:06;;;;;;;32.70;23.65;;;15.40;99.90;;;;;;6182994;23;20059;-87
2023/05/09 06:22:46;;;;;;;34.28;25.95;;;15.40;99.90;;;;;;6156942;23;20318;-87
2023/05/09 06:25:24;;;;;;;33.28;24.73;;;15.40;99.90;;;;;;6157694;23;20012;-86
2023/05/09 06:27:58;;;;;;;36.13;25.25;;;15.50;99.90;;;;;;6182150;23;20087;-87
2023/05/09 06:30:24;;;;;;;31.67;24.27;;;15.60;99.90;;;;;;6158064;23;20091;-87
2023/05/09 06:33:00;;;;;;;34.38;24.88;;;15.60;99.90;;;;;;6156643;23;20075;-86
2023/05/09 06:35:32;;;;;;;37.83;23.98;;;15.70;99.90;;;;;;6181470;23;20341;-88
2023/05/09 06:38:05;;;;;;;34.63;24.37;;;15.70;99.90;;;;;;6159164;23;20348;-88
2023/05/09 06:40:39;;;;;;;32.45;25.15;;;15.80;99.90;;;;;;6157502;23;20021;-86
2023/05/09 06:43:06;;;;;;;34.67;25.48;;;15.90;99.90;;;;;;6157996;23;20027;-87
2023/05/09 06:45:32;;;;;;;36.97;26.65;;;15.90;99.90;;;;;;6157012;23;20051;-85
2023/05/09 06:47:57;;;;;;;42.58;28.27;;;15.80;99.90;;;;;;6157407;23;20020;-85
2023/05/09 06:50:23;;;;;;;45.50;28.17;;;15.90;99.90;;;;;;6180301;23;20035;-86
2023/05/09 06:52:49;;;;;;;47.03;29.05;;;15.80;99.90;;;;;;6158129;23;20015;-86
2023/05/09 06:55:15;;;;;;;43.47;28.70;;;15.80;99.90;;;;;;6157762;23;20012;-87
2023/05/09 06:57:41;;;;;;;44.22;27.40;;;15.80;99.90;;;;;;6182236;23;20024;-86
2023/05/09 07:00:08;;;;;;;47.90;28.98;;;15.80;99.90;;;;;;6183363;23;20020;-87
2023/05/09 07:02:34;;;;;;;47.65;29.15;;;15.90;99.90;;;;;;6181814;23;20048;-86
2023/05/09 07:05:00;;;;;;;45.50;29.63;;;15.90;99.90;;;;;;6157941;23;20021;-87
2023/05/09 07:07:35;;;;;;;47.35;28.95;;;15.90;99.90;;;;;;6181603;23;20021;-87
2023/05/09 07:10:16;;;;;;;45.75;30.23;;;15.80;99.90;;;;;;6157853;23;20472;-86
2023/05/09 07:12:41;;;;;;;49.42;31.10;;;15.80;99.90;;;;;;6159708;23;20389;-87
2023/05/09 07:15:08;;;;;;;46.83;29.00;;;15.80;99.90;;;;;;6158284;23;20025;-86
2023/05/09 07:17:34;;;;;;;47.55;28.88;;;15.80;99.90;;;;;;6182360;23;20104;-88
2023/05/09 07:20:02;;;;;;;52.78;29.65;;;15.70;99.90;;;;;;6158066;23;20036;-86
2023/05/09 07:22:28;;;;;;;47.38;30.50;;;15.80;99.90;;;;;;6158338;23;20016;-87
2023/05/09 07:24:54;;;;;;;56.80;32.35;;;15.80;99.90;;;;;;6158274;23;20016;-86
2023/05/09 07:27:35;;;;;;;51.60;30.92;;;15.70;99.90;;;;;;6157355;23;20021;-86
2023/05/09 07:30:03;;;;;;;58.55;33.28;;;15.90;99.90;;;;;;6158032;23;20021;-88
2023/05/09 07:32:38;;;;;;;47.90;31.33;;;15.80;99.90;;;;;;6156547;23;20112;-87
2023/05/09 07:35:04;;;;;;;51.58;32.40;;;15.80;99.90;;;;;;6157570;23;20087;-86
2023/05/09 07:37:39;;;;;;;50.58;32.63;;;15.90;99.90;;;;;;6156503;23;20020;-87
2023/05/09 07:40:06;;;;;;;49.78;32.72;;;15.90;99.90;;;;;;6157345;23;20020;-87
2023/05/09 07:42:32;;;;;;;48.72;32.63;;;15.90;99.90;;;;;;6157177;23;20074;-88
2023/05/09 07:44:59;;;;;;;55.17;33.45;;;15.90;99.90;;;;;;6182813;23;20095;-87
2023/05/09 07:47:25;;;;;;;54.95;31.98;;;15.90;99.90;;;;;;6156230;23;20096;-88
2023/05/09 07:50:11;;;;;;;50.28;32.78;;;16.00;99.90;;;;;;6158732;23;20046;-87
2023/05/09 07:52:37;;;;;;;55.55;34.25;;;16.10;99.90;;;;;;6181670;23;20028;-87
2023/05/09 07:55:03;;;;;;;54.88;35.75;;;16.20;99.90;;;;;;6158163;23;20091;-87
2023/05/09 07:57:29;;;;;;;52.10;33.53;;;16.20;99.90;;;;;;6156835;23;20017;-86
2023/05/09 07:59:54;;;;;;;56.60;34.85;;;16.30;99.90;;;;;;6157458;23;20377;-86
2023/05/09 08:02:20;;;;;;;55.20;34.90;;;16.40;99.90;;;;;;6156234;23;20400;-87
2023/05/09 08:04:47;;;;;;;56.75;34.55;;;16.30;99.90;;;;;;6182884;23;20404;-87
2023/05/09 08:07:13;;;;;;;55.95;35.25;;;16.40;99.90;;;;;;6155776;23;20059;-87
2023/05/09 08:09:39;;;;;;;60.67;36.25;;;16.30;99.90;;;;;;6156180;23;20017;-87
2023/05/09 08:12:05;;;;;;;55.72;36.67;;;16.30;99.90;;;;;;6157749;23;20025;-87
2023/05/09 08:14:31;;;;;;;63.97;37.60;;;16.30;99.90;;;;;;6155956;23;20055;-87
2023/05/09 08:16:56;;;;;;;69.65;38.80;;;16.30;99.90;;;;;;6182716;23;20025;-87
2023/05/09 08:19:30;;;;;;;66.80;39.17;;;16.40;99.90;;;;;;6209427;23;20019;-87
2023/05/09 08:21:59;;;;;;;66.45;38.33;;;16.40;99.90;;;;;;6183157;23;20016;-87
2023/05/09 08:24:25;;;;;;;70.47;40.45;;;16.50;99.90;;;;;;6208616;23;20413;-88
2023/05/09 08:26:51;;;;;;;72.30;39.67;;;16.50;99.90;;;;;;6208924;23;20012;-87
2023/05/09 08:29:28;;;;;;;69.35;41.63;;;16.60;99.90;;;;;;6208636;23;20021;-87
2023/05/09 08:31:56;;;;;;;70.75;41.03;;;16.60;99.90;;;;;;6234032;23;20456;-87
2023/05/09 08:34:38;;;;;;;67.90;40.67;;;16.70;99.90;;;;;;6207850;23;20457;-87
2023/05/09 08:37:03;;;;;;;69.47;41.13;;;16.70;99.90;;;;;;6210259;23;20601;-87
2023/05/09 08:39:33;;;;;;;65.00;38.95;;;16.70;99.90;;;;;;6183996;23;20571;-87
2023/05/09 08:42:00;;;;;;;70.25;39.97;;;16.70;99.90;;;;;;6183896;23;20025;-87
2023/05/09 08:44:28;;;;;;;70.07;40.63;;;16.80;99.90;;;;;;6183673;23;20017;-88
2023/05/09 08:47:14;;;;;;;72.63;39.60;;;16.90;99.90;;;;;;6183113;23;20024;-87
2023/05/09 08:49:40;;;;;;;70.68;41.00;;;17.10;99.90;;;;;;6207585;23;20381;-87
2023/05/09 08:52:06;;;;;;;64.97;38.50;;;17.20;99.90;;;;;;6208235;23;20095;-87
2023/05/09 08:54:35;;;;;;;64.65;37.60;;;17.30;99.90;;;;;;6208988;23;20012;-87
2023/05/09 08:57:01;;;;;;;69.60;40.13;;;17.30;99.90;;;;;;6209113;23;20020;-88
2023/05/09 08:59:39;;;;;;;66.13;38.03;;;17.30;99.90;;;;;;6184414;23;20092;-88
2023/05/09 09:02:06;;;;;;;63.35;36.85;;;17.40;99.90;;;;;;6183926;23;20024;-87
2023/05/09 09:04:33;;;;;;;66.13;36.97;;;17.40;99.90;;;;;;6182551;23;20023;-88
2023/05/09 09:07:04;;;;;;;62.08;36.67;;;17.50;99.90;;;;;;6184310;23;20016;-88
2023/05/09 09:09:31;;;;;;;61.50;37.97;;;17.50;99.90;;;;;;6182534;23;20330;-88
2023/05/09 09:12:03;;;;;;;56.55;34.83;;;17.60;99.90;;;;;;6184316;23;20039;-88
2023/05/09 09:14:31;;;;;;;61.33;35.97;;;17.70;99.90;;;;;;6183454;23;20021;-87
2023/05/09 09:17:08;;;;;;;55.50;34.08;;;17.80;99.90;;;;;;6207784;23;20028;-88
2023/05/09 09:19:41;;;;;;;58.90;35.58;;;17.90;99.90;;;;;;6186090;23;20016;-88
2023/05/09 09:22:14;;;;;;;59.10;35.70;;;18.00;99.90;;;;;;6183343;23;20019;-88
2023/05/09 09:24:40;;;;;;;58.47;34.47;;;18.20;99.90;;;;;;6183234;23;20025;-88
2023/05/09 09:27:36;;;;;;;59.45;33.70;;;18.30;99.90;;;;;;6209293;23;20023;-88
2023/05/09 09:30:08;;;;;;;54.47;34.15;;;18.30;99.90;;;;;;6174547;23;20510;-87
2023/05/09 09:32:41;;;;;;;56.03;32.97;;;18.30;99.90;;;;;;6182839;23;20048;-87
2023/05/09 09:35:09;;;;;;;56.17;32.42;;;18.20;99.90;;;;;;6183800;23;20040;-88
2023/05/09 09:37:44;;;;;;;51.75;31.58;;;18.20;99.90;;;;;;6183215;23;20016;-88
2023/05/09 09:40:23;;;;;;;49.25;30.77;;;18.20;99.90;;;;;;6208801;23;20047;-88
2023/05/09 09:43:00;;;;;;;48.63;31.33;;;18.30;99.90;;;;;;6208386;23;20398;-88
2023/05/09 09:45:26;;;;;;;48.30;29.92;;;18.50;99.90;;;;;;6181902;23;20140;-87
2023/05/09 09:47:53;;;;;;;49.92;29.85;;;18.60;99.90;;;;;;6208035;23;20062;-88
2023/05/09 09:50:22;;;;;;;46.15;28.38;;;18.70;99.90;;;;;;6208749;23;20016;-88
2023/05/09 09:53:02;;;;;;;48.50;30.10;;;18.70;99.90;;;;;;6208023;23;20095;-89
2023/05/09 09:55:50;;;;;;;43.38;27.77;;;18.80;99.90;;;;;;6182930;23;20024;-88
2023/05/09 09:58:24;;;;;;;40.67;27.83;;;18.70;99.90;;;;;;6184162;23;20078;-88
2023/05/09 10:01:22;;;;;;;42.03;27.67;;;18.60;99.90;;;;;;6207055;23;20025;-89
2023/05/09 10:03:48;;;;;;;39.67;26.15;;;18.60;99.90;;;;;;6184009;23;20012;-88
2023/05/09 10:06:15;;;;;;;40.90;27.17;;;18.40;99.90;;;;;;6182171;23;20016;-89
2023/05/09 10:08:43;;;;;;;41.25;25.73;;;18.40;99.90;;;;;;6209182;23;20012;-88
2023/05/09 10:11:09;;;;;;;41.17;25.85;;;18.40;99.90;;;;;;6208397;23;20413;-89
2023/05/09 10:13:38;;;;;;;38.35;25.80;;;18.50;99.90;;;;;;6183017;23;20752;-88
2023/05/09 10:16:06;;;;;;;39.28;24.33;;;18.60;99.90;;;;;;6182990;23;20021;-89
2023/05/09 10:18:40;;;;;;;43.55;24.95;;;18.60;99.90;;;;;;6183256;23;20012;-88
2023/05/09 10:21:09;;;;;;;42.38;25.73;;;18.60;99.90;;;;;;6206617;23;20092;-88
2023/05/09 10:23:37;;;;;;;36.30;22.90;;;18.60;99.90;;;;;;6183595;23;20396;-88
2023/05/09 10:26:27;;;;;;;38.85;23.75;;;18.60;99.90;;;;;;6183550;23;20026;-89
2023/05/09 10:28:56;;;;;;;38.08;22.38;;;18.50;99.90;;;;;;6183640;23;20486;-88
2023/05/09 10:31:34;;;;;;;35.17;22.38;;;18.50;99.90;;;;;;6182277;23;20054;-89
2023/05/09 10:34:36;;;;;;;40.08;23.90;;;18.60;99.90;;;;;;6183036;23;20051;-86
2023/05/09 10:37:07;;;;;;;32.00;22.15;;;18.80;99.90;;;;;;6172954;23;20117;-88
2023/05/09 10:39:34;;;;;;;30.92;22.02;;;19.00;99.90;;;;;;6183924;23;20020;-91
2023/05/09 10:42:24;;;;;;;34.50;22.48;;;19.20;99.90;;;;;;6184969;23;20442;-92
2023/05/09 10:45:21;;;;;;;33.63;21.40;;;19.30;99.90;;;;;;6178676;23;20432;-91
2023/05/09 10:48:13;;;;;;;32.30;23.15;;;19.40;99.90;;;;;;6183014;23;20052;-93
2023/05/09 10:54:11;;;;;;;;;;;;;;;;;;;;;
2023/05/09 10:57:45;;;;;;;;;;;;;;;;;;;;;
2023/05/09 11:01:06;;;;;;;28.48;20.70;;;19.40;99.90;;;;;;6203889;23;20441;-95
2023/05/09 11:04:50;;;;;;;;;;;;;;;;;;;;;
2023/05/09 11:10:19;;;;;;;32.40;20.00;;;19.40;99.90;;;;;;6210698;23;20028;-90
2023/05/09 11:13:26;;;;;;;25.17;17.98;;;19.40;99.90;;;;;;6185256;23;20025;-90
2023/05/09 11:16:30;;;;;;;29.95;19.10;;;19.40;99.90;;;;;;6207725;23;20025;-90
2023/05/09 11:19:30;;;;;;;;;;;;;;;;;;;;;
2023/05/09 11:22:42;;;;;;;27.33;19.27;;;19.30;99.90;;;;;;6210337;23;20024;-91
2023/05/09 11:25:27;;;;;;;;;;;;;;;;;;;;;
2023/05/09 11:28:00;;;;;;;26.33;18.25;;;19.10;99.90;;;;;;6210208;23;20036;-88
2023/05/09 11:30:56;;;;;;;30.70;19.52;;;19.00;99.90;;;;;;6183991;23;20028;-89
2023/05/09 11:34:05;;;;;;;;;;;;;;;;;;;;;
2023/05/09 11:36:35;;;;;;;25.02;18.25;;;19.00;99.90;;;;;;6209032;23;20036;-89
2023/05/09 11:39:58;;;;;;;28.33;19.75;;;19.00;99.90;;;;;;6184354;23;20071;-90
2023/05/09 11:42:31;;;;;;;31.50;18.60;;;19.10;99.90;;;;;;6204430;23;20047;-90
2023/05/09 11:48:48;;;;;;;26.45;18.70;;;19.70;99.90;;;;;;6062302;23;20018;-87
2023/05/09 11:51:17;;;;;;;25.30;19.30;;;19.70;99.90;;;;;;6057846;23;20466;-86
2023/05/09 11:53:45;;;;;;;25.42;18.30;;;19.70;99.90;;;;;;6066602;23;20025;-85
2023/05/09 11:56:22;;;;;;;;;;;;;;;;;;;;;
2023/05/09 11:58:58;;;;;;;24.48;17.30;;;19.70;99.90;;;;;;6085553;23;20028;-86
2023/05/09 12:01:23;;;;;;;29.52;18.83;;;19.50;99.90;;;;;;6184741;23;20016;-87
2023/05/09 12:03:50;;;;;;;23.92;17.00;;;19.50;99.90;;;;;;6185238;23;20017;-86
2023/05/09 12:06:29;;;;;;;22.55;17.73;;;19.40;99.90;;;;;;6184254;23;20016;-87
2023/05/09 12:08:56;;;;;;;24.20;17.70;;;19.40;99.90;;;;;;6185976;23;20028;-87
2023/05/09 12:11:35;;;;;;;21.95;17.05;;;19.50;99.90;;;;;;6183735;23;20024;-86
2023/05/09 12:14:01;;;;;;;25.65;17.70;;;19.60;99.90;;;;;;6184099;23;20380;-86
2023/05/09 12:16:30;;;;;;;25.00;18.15;;;19.60;99.90;;;;;;6183918;23;20438;-87
2023/05/09 12:18:59;;;;;;;28.60;18.35;;;19.70;99.90;;;;;;6185460;23;20016;-87
2023/05/09 12:21:45;;;;;;;25.77;17.63;;;19.80;99.90;;;;;;6183847;23;20023;-86
2023/05/09 12:24:20;;;;;;;23.48;17.23;;;19.90;99.90;;;;;;6210116;23;20024;-87
2023/05/09 12:26:50;;;;;;;23.48;17.60;;;20.10;99.90;;;;;;6184211;23;20019;-87
2023/05/09 12:29:17;;;;;;;24.52;17.33;;;20.10;99.90;;;;;;6185959;23;20017;-86
2023/05/09 12:31:45;;;;;;;25.38;17.42;;;20.00;99.90;;;;;;6183756;23;20066;-86
2023/05/09 12:34:11;;;;;;;26.23;17.50;;;20.20;99.90;;;;;;6183764;23;20021;-86
2023/05/09 12:36:39;;;;;;;21.92;17.08;;;20.30;99.90;;;;;;6183748;23;20012;-86
2023/05/09 12:39:09;;;;;;;23.70;16.95;;;20.20;99.90;;;;;;6185015;23;20075;-86
2023/05/09 12:41:52;;;;;;;24.08;17.05;;;20.30;99.90;;;;;;6182829;23;20414;-86
2023/05/09 12:44:39;;;;;;;24.33;16.85;;;20.30;99.90;;;;;;6183906;23;20009;-86
2023/05/09 12:47:18;;;;;;;31.23;21.42;;;20.40;99.90;;;;;;6184204;23;20023;-87
2023/05/09 12:49:56;;;;;;;34.75;22.83;;;20.30;99.90;;;;;;6184081;23;20082;-87
2023/05/09 12:52:39;;;;;;;33.95;22.15;;;20.20;99.90;;;;;;6183493;23;20453;-86
2023/05/09 12:55:12;;;;;;;34.45;24.48;;;20.20;99.90;;;;;;6183055;23;20043;-86
2023/05/09 12:57:40;;;;;;;39.28;24.30;;;20.10;99.90;;;;;;6209781;23;20016;-90
2023/05/09 13:00:12;;;;;;;40.97;25.95;;;20.10;99.90;;;;;;6185121;23;20445;-89
2023/05/09 13:02:40;;;;;;;43.25;27.63;;;20.00;99.90;;;;;;6183019;23;20021;-89
2023/05/09 13:05:09;;;;;;;47.38;27.38;;;19.90;99.90;;;;;;6184566;23;20020;-89